Aramis — V7YD2 — position and weather

sailwx.info

Track history (hours):
 
Tides and Currents Weather Stations Pressure Air Temp Water Temp Dewpoint Dewpoint Depression Visibility Wind Speed Wind Dir Waves Ship Positions

Aramis

Last reported at 2018-May-09 11:35 UTC. Time now 2018-May-20 17:19 UTC.
Position N 27°28' W 015°12'.
Warning: this ship's position is 11 days out of date.

Length 190 m; draft 11.4 m.

Type: Cargo ship. MMSI: 538004630.

Date/timePositionNaut miles runAvg speedWind from/ knotsBaromVisibWave heightAir tempDewpointWater temp
2018-May-09 11:35N 27°28' W 015°12'414.3
2018-May-09 11:18N 27°32' W 015°11'414.3
2018-May-09 11:01N 27°36' W 015°10'714.3
2018-May-09 10:30N 27°44' W 015°09'714.5
2018-May-09 10:00N 27°51' W 015°07'714.7
2018-May-09 09:30N 27°58' W 015°04'714.6
2018-May-09 09:00N 28°05' W 015°02'714.6
2018-May-09 08:30N 28°11' W 014°59'714.5
2018-May-09 08:00N 28°18' W 014°56'714.4
2018-May-09 07:30N 28°24' W 014°51'714.4
2018-May-09 07:00N 28°29' W 014°45'714.4
2018-May-09 06:30N 28°34' W 014°40'64113.9
2018-May-07 08:26N 35°58' W 005°33'511.4
2018-May-07 08:00N 35°60' W 005°28'4 8.9
2018-May-07 07:30N 36°03' W 005°24'5 9.0
2018-May-07 07:00N 36°08' W 005°23'1 1.4
2018-May-07 06:29N 36°07' W 005°22'0 0.0
2018-May-06 23:23N 36°07' W 005°22'0 0.0
2018-May-06 22:59N 36°07' W 005°22'0 0.0
2018-May-06 22:29N 36°07' W 005°22'0 0.0
2018-May-06 21:41N 36°07' W 005°22'0 0.0
2018-May-06 21:17N 36°07' W 005°22'0 0.0
2018-May-06 20:59N 36°07' W 005°22'0 0.0
2018-May-06 20:29N 36°07' W 005°22'0 0.1
2018-May-06 19:59N 36°07' W 005°22'0 0.3
2018-May-06 19:29N 36°07' W 005°22'0 0.1
2018-May-06 18:59N 36°07' W 005°22'0 0.1
2018-May-06 18:29N 36°07' W 005°22'0 0.0
2018-May-06 17:59N 36°07' W 005°22'0 0.1
2018-May-06 17:26N 36°07' W 005°22'0 0.0
2018-May-06 16:59N 36°07' W 005°22'  
2018-May-03 04:08N 36°50' E 013°50'  
2018-Apr-30 15:31N 33°15' E 030°04'014.9
2018-Apr-30 15:31N 33°15' E 030°04'814.6
2018-Apr-30 15:00N 33°13' E 030°13'714.5
2018-Apr-30 14:31N 33°11' E 030°21'714.3
2018-Apr-30 14:01N 33°08' E 030°29'714.2
2018-Apr-30 13:30N 33°06' E 030°37'714.2
2018-Apr-30 13:00N 33°04' E 030°45'714.2
2018-Apr-30 12:31N 33°01' E 030°53'714.3
2018-Apr-30 12:01N 32°59' E 031°01'714.5
2018-Apr-30 11:30N 32°57' E 031°09'714.2
2018-Apr-30 10:59N 32°54' E 031°17'1314.1
2018-Apr-30 10:02N 32°50' E 031°32'013.6
2018-Apr-30 10:01N 32°50' E 031°33'5013.9
2018-Apr-30 06:26N 32°33' E 032°29'1814.1
2018-Apr-30 05:10N 32°27' E 032°49'214.2
2018-Apr-30 05:00N 32°27' E 032°51'1214.1
2018-Apr-30 04:09N 32°23' E 033°05'314.1
2018-Apr-30 03:57N 32°22' E 033°08'714.2
2018-Apr-30 03:27N 32°20' E 033°16'714.4
2018-Apr-30 02:59N 32°17' E 033°23'714.7
2018-Apr-30 02:30N 32°15' E 033°31'714.8
2018-Apr-30 02:00N 32°12' E 033°39'714.6
2018-Apr-30 01:30N 32°10' E 033°48'714.6
2018-Apr-30 01:00N 32°07' E 033°55'714.7
2018-Apr-30 00:30N 32°04' E 034°03'714.5
2018-Apr-30 00:00N 32°01' E 034°11'714.3
2018-Apr-29 23:30N 31°58' E 034°18'714.2
2018-Apr-29 23:00N 31°55' E 034°26'713.6
2018-Apr-29 22:30N 31°52' E 034°34'4 8.9
2018-Apr-29 22:01N 31°51' E 034°38'1 1.2
2018-Apr-29 20:47N 31°49' E 034°39'0 0.0
2018-Apr-29 20:26N 31°49' E 034°39'0 0.0
2018-Apr-29 19:59N 31°49' E 034°39'0 0.0
2018-Apr-29 19:29N 31°49' E 034°39'0 0.0
2018-Apr-29 18:59N 31°49' E 034°39'0 0.0
2018-Apr-29 18:29N 31°49' E 034°39'0 0.0
2018-Apr-29 17:59N 31°49' E 034°39'0 0.0
2018-Apr-29 17:29N 31°49' E 034°39'0 0.0
2018-Apr-29 16:59N 31°49' E 034°39'0 0.0
2018-Apr-29 16:29N 31°49' E 034°39'0 0.0
2018-Apr-29 15:59N 31°49' E 034°39'0 0.0
2018-Apr-29 15:29N 31°49' E 034°39'0 0.0
2018-Apr-29 14:59N 31°49' E 034°39'0 0.0
2018-Apr-29 14:29N 31°49' E 034°39'0 0.0
2018-Apr-29 13:59N 31°49' E 034°39'0 0.0
2018-Apr-29 13:23N 31°49' E 034°39'0 0.0
2018-Apr-29 12:59N 31°49' E 034°39'0 0.0
2018-Apr-29 12:29N 31°49' E 034°39'0 0.0
2018-Apr-29 11:59N 31°49' E 034°39'  
Track history (hours):
 
Tides and Currents Weather Stations Pressure Air Temp Water Temp Dewpoint Dewpoint Depression Visibility Wind Speed Wind Dir Waves Ship Positions

Aramis

Last reported at 2018-May-09 11:35 UTC. Time now 2018-May-20 17:19 UTC.
Position N 27°28' W 015°12'.
Warning: this ship's position is 11 days out of date.

Length 190 m; draft 11.4 m.

Type: Cargo ship. MMSI: 538004630.

Date/timePositionNaut miles runAvg speedWind from/ knotsBaromVisibWave heightAir tempDewpointWater temp
2018-May-09 11:35N 27°28' W 015°12'414.3
2018-May-09 11:18N 27°32' W 015°11'414.3
2018-May-09 11:01N 27°36' W 015°10'714.3
2018-May-09 10:30N 27°44' W 015°09'714.5
2018-May-09 10:00N 27°51' W 015°07'714.7
2018-May-09 09:30N 27°58' W 015°04'714.6
2018-May-09 09:00N 28°05' W 015°02'714.6
2018-May-09 08:30N 28°11' W 014°59'714.5
2018-May-09 08:00N 28°18' W 014°56'714.4
2018-May-09 07:30N 28°24' W 014°51'714.4
2018-May-09 07:00N 28°29' W 014°45'714.4
2018-May-09 06:30N 28°34' W 014°40'64113.9
2018-May-07 08:26N 35°58' W 005°33'511.4
2018-May-07 08:00N 35°60' W 005°28'4 8.9
2018-May-07 07:30N 36°03' W 005°24'5 9.0
2018-May-07 07:00N 36°08' W 005°23'1 1.4
2018-May-07 06:29N 36°07' W 005°22'0 0.0
2018-May-06 23:23N 36°07' W 005°22'0 0.0
2018-May-06 22:59N 36°07' W 005°22'0 0.0
2018-May-06 22:29N 36°07' W 005°22'0 0.0
2018-May-06 21:41N 36°07' W 005°22'0 0.0
2018-May-06 21:17N 36°07' W 005°22'0 0.0
2018-May-06 20:59N 36°07' W 005°22'0 0.0
2018-May-06 20:29N 36°07' W 005°22'0 0.1
2018-May-06 19:59N 36°07' W 005°22'0 0.3
2018-May-06 19:29N 36°07' W 005°22'0 0.1
2018-May-06 18:59N 36°07' W 005°22'0 0.1
2018-May-06 18:29N 36°07' W 005°22'0 0.0
2018-May-06 17:59N 36°07' W 005°22'0 0.1
2018-May-06 17:26N 36°07' W 005°22'0 0.0
2018-May-06 16:59N 36°07' W 005°22'  
2018-May-03 04:08N 36°50' E 013°50'  
2018-Apr-30 15:31N 33°15' E 030°04'014.9
2018-Apr-30 15:31N 33°15' E 030°04'814.6
2018-Apr-30 15:00N 33°13' E 030°13'714.5
2018-Apr-30 14:31N 33°11' E 030°21'714.3
2018-Apr-30 14:01N 33°08' E 030°29'714.2
2018-Apr-30 13:30N 33°06' E 030°37'714.2
2018-Apr-30 13:00N 33°04' E 030°45'714.2
2018-Apr-30 12:31N 33°01' E 030°53'714.3
2018-Apr-30 12:01N 32°59' E 031°01'714.5
2018-Apr-30 11:30N 32°57' E 031°09'714.2
2018-Apr-30 10:59N 32°54' E 031°17'1314.1
2018-Apr-30 10:02N 32°50' E 031°32'013.6
2018-Apr-30 10:01N 32°50' E 031°33'5013.9
2018-Apr-30 06:26N 32°33' E 032°29'1814.1
2018-Apr-30 05:10N 32°27' E 032°49'214.2
2018-Apr-30 05:00N 32°27' E 032°51'1214.1
2018-Apr-30 04:09N 32°23' E 033°05'314.1
2018-Apr-30 03:57N 32°22' E 033°08'714.2
2018-Apr-30 03:27N 32°20' E 033°16'714.4
2018-Apr-30 02:59N 32°17' E 033°23'714.7
2018-Apr-30 02:30N 32°15' E 033°31'714.8
2018-Apr-30 02:00N 32°12' E 033°39'714.6
2018-Apr-30 01:30N 32°10' E 033°48'714.6
2018-Apr-30 01:00N 32°07' E 033°55'714.7
2018-Apr-30 00:30N 32°04' E 034°03'714.5
2018-Apr-30 00:00N 32°01' E 034°11'714.3
2018-Apr-29 23:30N 31°58' E 034°18'714.2
2018-Apr-29 23:00N 31°55' E 034°26'713.6
2018-Apr-29 22:30N 31°52' E 034°34'4 8.9
2018-Apr-29 22:01N 31°51' E 034°38'1 1.2
2018-Apr-29 20:47N 31°49' E 034°39'0 0.0
2018-Apr-29 20:26N 31°49' E 034°39'0 0.0
2018-Apr-29 19:59N 31°49' E 034°39'0 0.0
2018-Apr-29 19:29N 31°49' E 034°39'0 0.0
2018-Apr-29 18:59N 31°49' E 034°39'0 0.0
2018-Apr-29 18:29N 31°49' E 034°39'0 0.0
2018-Apr-29 17:59N 31°49' E 034°39'0 0.0
2018-Apr-29 17:29N 31°49' E 034°39'0 0.0
2018-Apr-29 16:59N 31°49' E 034°39'0 0.0
2018-Apr-29 16:29N 31°49' E 034°39'0 0.0
2018-Apr-29 15:59N 31°49' E 034°39'0 0.0
2018-Apr-29 15:29N 31°49' E 034°39'0 0.0
2018-Apr-29 14:59N 31°49' E 034°39'0 0.0
2018-Apr-29 14:29N 31°49' E 034°39'0 0.0
2018-Apr-29 13:59N 31°49' E 034°39'0 0.0
2018-Apr-29 13:23N 31°49' E 034°39'0 0.0
2018-Apr-29 12:59N 31°49' E 034°39'0 0.0
2018-Apr-29 12:29N 31°49' E 034°39'0 0.0
2018-Apr-29 11:59N 31°49' E 034°39'  

Dump ship's entire track history